Linworth, Ohio
Current Conditions -  °F | °C
As of 7:53 PM on Saturday 25 Oct 2014 (Local Time) from KOSU Reporting Station
Clear Clear  
Wind Chill: 63°   Ceiling: Unl
Heat Index: 63°   Visibility: 10mi
Dew Point: 47°   Wind: 10mph
Humidity: 56%   Direction: 280°W
Pressure: 29.84"   Gusts: NA
Location:  40.0994°N, 83.0166°W
Report Text: KOSU 252353Z 28009KT 10SM CLR 17/08 A2984 RMK AO2 SLP106 T01720083 10228 20172 53003
Loading
Personal Weather Stations






























Interactive Weather Map
Tropical Storm Tracking
New forecast layout! Learn more

10-Day Weather Forecast

Advertisements
Track Severe Weather on mobile